Time;durP1;ratioP1;P1;durP2;ratioP2;P2;SDS_P1;SDS_P2;PMS_P1;PMS_P2;Temp;Humidity;BMP_temperature;BMP_pressure;BME280_temperature;BME280_humidity;BME280_pressure;Samples;Min_cycle;Max_cycle;Signal;HPM_P1;HPM_P2
2022/08/27 00:00:44;;;;;;;15.80;10.85;;;;;;;22.64;69.03;100145.25;5100625;28;20051;-68
2022/08/27 00:03:12;;;;;;;16.45;11.27;;;;;;;22.64;69.44;100142.56;5101841;27;20112;-69
2022/08/27 00:05:39;;;;;;;15.00;10.82;;;;;;;22.61;69.41;100142.88;5099045;28;20039;-69
2022/08/27 00:08:07;;;;;;;14.35;10.50;;;;;;;22.58;69.43;100125.13;5097708;28;20043;-70
2022/08/27 00:10:35;;;;;;;17.75;10.80;;;;;;;22.59;69.57;100126.81;5103898;27;20052;-69
2022/08/27 00:13:01;;;;;;;13.35;9.90;;;;;;;22.63;69.37;100130.06;5104974;27;20047;-68
2022/08/27 00:15:29;;;;;;;12.27;10.23;;;;;;;22.56;69.55;100119.03;5105863;28;20039;-69
2022/08/27 00:17:56;;;;;;;15.50;10.35;;;;;;;22.44;69.68;100106.78;5105420;28;20048;-69
2022/08/27 00:20:24;;;;;;;13.50;9.38;;;;;;;22.53;69.95;100127.44;5100122;28;20555;-69
2022/08/27 00:22:52;;;;;;;14.50;10.63;;;;;;;22.52;70.27;100112.25;5102652;28;20062;-70
2022/08/27 00:25:19;;;;;;;13.38;9.52;;;;;;;22.56;69.75;100115.47;5101793;28;20043;-68
2022/08/27 00:27:46;;;;;;;15.77;10.43;;;;;;;22.50;69.91;100118.81;5105303;27;20063;-69
2022/08/27 00:30:15;;;;;;;12.77;10.02;;;;;;;22.36;70.22;100112.94;5098268;28;20039;-69
2022/08/27 00:32:42;;;;;;;16.02;9.75;;;;;;;22.33;70.57;100117.81;5102796;28;20065;-68
2022/08/27 00:35:10;;;;;;;11.45;10.15;;;;;;;22.32;70.80;100121.53;5104409;28;20043;-68
2022/08/27 00:37:36;;;;;;;16.85;10.15;;;;;;;22.31;70.78;100130.59;5091595;27;20143;-68
2022/08/27 00:40:05;;;;;;;15.05;9.63;;;;;;;22.28;71.14;100123.66;5101382;27;20069;-68
2022/08/27 00:42:32;;;;;;;13.30;9.98;;;;;;;22.27;71.11;100121.13;5106987;28;20555;-68
2022/08/27 00:44:59;;;;;;;20.70;10.07;;;;;;;22.27;71.13;100126.50;5107587;28;20088;-68
2022/08/27 00:47:28;;;;;;;14.65;10.10;;;;;;;22.25;71.45;100125.81;5096677;28;20063;-68
2022/08/27 00:50:04;;;;;;;12.85;8.98;;;;;;;22.22;71.50;100126.13;5107445;27;20052;-67
2022/08/27 00:52:44;;;;;;;16.00;9.73;;;;;;;22.20;71.58;100125.41;5097568;28;20759;-67
2022/08/27 00:55:17;;;;;;;13.68;9.07;;;;;;;22.19;71.64;100124.59;5094218;28;20132;-67
2022/08/27 00:57:46;;;;;;;14.70;9.27;;;;;;;22.18;71.86;100128.28;5092559;28;20491;-67
2022/08/27 01:00:17;;;;;;;17.60;9.70;;;;;;;22.13;71.81;100122.50;5088651;28;20067;-69
2022/08/27 01:02:46;;;;;;;12.82;9.25;;;;;;;22.02;72.00;100107.41;5102328;28;20062;-67
2022/08/27 01:05:19;;;;;;;14.48;9.43;;;;;;;22.18;72.04;100130.13;5098575;28;20571;-68
2022/08/27 01:07:49;;;;;;;14.63;9.32;;;;;;;22.06;71.74;100105.22;5096207;28;20097;-67
2022/08/27 01:10:18;;;;;;;14.20;9.73;;;;;;;22.17;71.76;100120.34;5095860;28;20058;-68
2022/08/27 01:12:45;;;;;;;9.48;7.32;;;;;;;22.19;71.94;100124.59;5101938;28;20051;-68
2022/08/27 01:15:21;;;;;;;14.25;8.93;;;;;;;22.09;71.88;100098.69;5096733;28;20039;-68
2022/08/27 01:17:49;;;;;;;15.68;8.48;;;;;;;22.22;71.83;100113.47;5104194;28;20047;-68
2022/08/27 01:20:25;;;;;;;14.50;8.38;;;;;;;22.24;71.75;100118.72;5100848;28;20113;-68
2022/08/27 01:23:16;;;;;;;14.30;9.10;;;;;;;22.20;71.50;100115.47;5105162;28;20044;-68
2022/08/27 01:25:44;;;;;;;11.18;8.32;;;;;;;22.23;71.24;100117.03;5095600;28;20107;-67
2022/08/27 01:28:12;;;;;;;14.40;9.10;;;;;;;22.22;71.51;100123.41;5103609;28;20062;-68
2022/08/27 01:30:39;;;;;;;12.57;8.38;;;;;;;22.20;71.64;100131.66;5098447;28;20067;-69
2022/08/27 01:33:13;;;;;;;11.90;8.00;;;;;;;22.24;71.79;100135.75;5101861;28;20092;-68
2022/08/27 01:35:46;;;;;;;22.15;9.10;;;;;;;22.24;71.35;100127.66;5086092;28;20587;-68
2022/08/27 01:38:14;;;;;;;18.50;8.90;;;;;;;22.27;71.30;100132.75;5103534;28;20071;-68
2022/08/27 01:40:57;;;;;;;15.43;8.45;;;;;;;22.14;71.59;100120.66;5104015;27;20400;-69
2022/08/27 01:43:24;;;;;;;11.23;8.35;;;;;;;22.21;71.51;100129.81;5107848;28;20044;-69
2022/08/27 01:45:51;;;;;;;17.02;8.13;;;;;;;22.23;71.32;100125.13;5104891;28;20074;-68
2022/08/27 01:48:19;;;;;;;14.75;8.80;;;;;;;22.15;71.37;100119.66;5107315;28;20440;-68
2022/08/27 01:50:47;;;;;;;13.05;8.38;;;;;;;22.22;71.36;100136.91;5108498;28;20130;-68
2022/08/27 01:53:18;;;;;;;12.55;9.02;;;;;;;22.05;71.41;100114.31;5089076;28;20043;-68
2022/08/27 01:55:46;;;;;;;14.73;8.20;;;;;;;22.18;71.72;100132.84;5088746;28;20043;-68
2022/08/27 01:58:15;;;;;;;11.82;8.52;;;;;;;22.08;71.53;100113.16;5102461;28;20043;-69
2022/08/27 02:00:45;;;;;;;18.35;8.95;;;;;;;22.09;71.91;100118.41;5106095;27;20104;-68
2022/08/27 02:03:12;;;;;;;12.95;8.70;;;;;;;22.10;71.79;100119.25;5107119;28;20061;-69
2022/08/27 02:05:39;;;;;;;14.73;8.63;;;;;;;22.02;72.12;100111.94;5108124;28;20047;-67
2022/08/27 02:08:14;;;;;;;14.13;9.40;;;;;;;21.96;72.38;100121.44;5104834;28;20060;-68
2022/08/27 02:10:43;;;;;;;12.20;8.63;;;;;;;21.97;72.36;100114.19;5100740;28;20419;-68
2022/08/27 02:13:12;;;;;;;11.20;7.95;;;;;;;21.85;72.54;100105.47;5106807;28;20126;-68
2022/08/27 02:15:40;;;;;;;14.02;8.48;;;;;;;21.87;72.74;100106.19;5105297;28;20564;-68
2022/08/27 02:18:08;;;;;;;13.45;9.05;;;;;;;21.93;72.44;100118.19;5088849;28;20036;-68
2022/08/27 02:20:35;;;;;;;10.88;8.65;;;;;;;21.87;72.54;100103.50;5102726;28;20067;-68
2022/08/27 02:23:03;;;;;;;12.70;8.55;;;;;;;21.81;72.63;100101.38;5102495;28;20044;-67
2022/08/27 02:25:30;;;;;;;12.50;8.75;;;;;;;21.73;72.98;100079.72;5102984;27;20500;-68
2022/08/27 02:27:58;;;;;;;14.23;8.43;;;;;;;21.90;72.93;100113.09;5105866;27;20059;-68
2022/08/27 02:30:28;;;;;;;12.90;9.07;;;;;;;21.92;72.32;100108.41;5109027;27;20491;-68
2022/08/27 02:32:54;;;;;;;12.43;8.95;;;;;;;21.92;72.41;100106.56;5107462;27;20121;-68
2022/08/27 02:35:23;;;;;;;15.18;9.10;;;;;;;21.92;72.76;100105.72;5106194;28;20626;-68
2022/08/27 02:37:51;;;;;;;12.25;8.57;;;;;;;21.80;72.94;100091.59;5103101;27;20498;-68
2022/08/27 02:40:20;;;;;;;16.70;9.07;;;;;;;21.88;72.88;100105.16;5102803;28;20109;-68
2022/08/27 02:42:47;;;;;;;13.80;8.57;;;;;;;21.78;72.90;100101.69;5088915;28;20051;-68
2022/08/27 02:45:14;;;;;;;13.48;8.82;;;;;;;21.81;72.83;100093.31;5097898;28;20203;-68
2022/08/27 02:47:41;;;;;;;16.75;8.93;;;;;;;21.91;72.87;100115.66;5103893;27;20056;-68
2022/08/27 02:50:10;;;;;;;14.38;9.73;;;;;;;21.93;72.40;100110.94;5105490;28;20036;-68
2022/08/27 02:52:37;;;;;;;13.27;9.20;;;;;;;21.91;72.33;100112.09;5101601;28;20054;-68
2022/08/27 02:55:05;;;;;;;16.35;9.23;;;;;;;21.89;72.56;100108.69;5097364;28;20298;-68
2022/08/27 02:57:32;;;;;;;11.82;8.68;;;;;;;21.87;72.75;100113.44;5105448;27;20051;-68
2022/08/27 03:00:07;;;;;;;15.32;9.20;;;;;;;21.84;72.46;100111.03;5082340;28;20047;-68
2022/08/27 03:02:35;;;;;;;13.20;8.73;;;;;;;21.80;72.69;100102.38;5108507;27;20171;-68
2022/08/27 03:05:02;;;;;;;12.88;8.93;;;;;;;21.85;73.11;100108.19;5093456;28;20106;-68
2022/08/27 03:07:28;;;;;;;14.65;9.32;;;;;;;21.85;72.61;100105.47;5092089;28;20063;-67
2022/08/27 03:09:55;;;;;;;14.00;9.35;;;;;;;21.84;72.81;100102.94;5090532;28;20079;-67
2022/08/27 03:12:23;;;;;;;14.63;9.00;;;;;;;21.83;72.64;100096.69;5098493;28;20182;-68
2022/08/27 03:14:50;;;;;;;17.13;10.73;;;;;;;21.80;72.58;100107.78;5107060;27;20537;-68
2022/08/27 03:20:03;;;;;;;13.70;9.88;;;;;;;21.74;72.80;100102.97;5103778;28;20040;-67
2022/08/27 03:22:30;;;;;;;15.55;10.63;;;;;;;21.63;72.86;100084.31;5099763;28;20047;-68
2022/08/27 03:24:57;;;;;;;16.70;9.85;;;;;;;21.70;72.99;100099.75;5107513;28;20052;-68
2022/08/27 03:27:24;;;;;;;16.63;10.57;;;;;;;21.70;72.95;100107.00;5103703;28;20051;-68
2022/08/27 03:29:50;;;;;;;15.57;10.52;;;;;;;21.71;72.70;100114.09;5106547;27;20048;-68
2022/08/27 03:32:17;;;;;;;17.50;9.88;;;;;;;21.69;73.06;100111.53;5104394;28;20046;-68
2022/08/27 03:34:43;;;;;;;13.68;9.70;;;;;;;21.68;72.78;100106.28;5085855;28;20052;-68
2022/08/27 03:37:10;;;;;;;14.38;9.30;;;;;;;21.67;73.18;100110.84;5078015;28;20056;-69
2022/08/27 03:39:37;;;;;;;13.18;9.55;;;;;;;21.65;73.28;100109.28;5076582;28;20047;-67
2022/08/27 03:42:04;;;;;;;15.50;10.15;;;;;;;21.68;73.17;100112.53;5085028;28;20615;-67
2022/08/27 03:44:31;;;;;;;11.93;9.10;;;;;;;21.66;73.24;100109.13;5083919;28;20044;-67
2022/08/27 03:46:58;;;;;;;13.95;9.38;;;;;;;21.55;73.35;100084.25;5084147;28;20071;-67
2022/08/27 03:49:25;;;;;;;19.50;9.38;;;;;;;21.65;73.08;100107.44;5084464;28;20040;-68
2022/08/27 03:51:52;;;;;;;16.10;9.93;;;;;;;21.65;73.49;100111.97;5086209;28;20044;-69
2022/08/27 03:54:19;;;;;;;17.67;10.48;;;;;;;21.57;73.37;100106.47;5076935;28;20045;-67
2022/08/27 03:56:46;;;;;;;14.02;10.35;;;;;;;21.46;73.47;100094.06;5084886;28;20121;-69
2022/08/27 03:59:14;;;;;;;15.13;10.30;;;;;;;21.54;73.80;100110.34;5064648;28;20071;-69
2022/08/27 04:01:41;;;;;;;15.60;9.63;;;;;;;21.51;73.88;100109.78;5086206;28;20040;-69
2022/08/27 04:04:08;;;;;;;12.77;9.05;;;;;;;21.54;74.15;100112.19;5080128;28;20047;-69
2022/08/27 04:06:34;;;;;;;15.32;9.10;;;;;;;21.55;73.98;100117.41;5079705;28;20040;-68
2022/08/27 04:09:02;;;;;;;13.00;10.70;;;;;;;21.56;73.75;100120.97;5082655;28;20044;-68
2022/08/27 04:11:29;;;;;;;13.32;9.68;;;;;;;21.46;74.08;100104.81;5080279;28;20075;-67
2022/08/27 04:13:56;;;;;;;13.35;9.57;;;;;;;21.64;73.78;100121.06;5081052;28;20565;-67
2022/08/27 04:16:24;;;;;;;13.65;9.32;;;;;;;21.72;73.17;100131.94;5080930;28;20047;-68
2022/08/27 04:18:52;;;;;;;15.30;10.27;;;;;;;21.57;73.06;100107.31;5083862;28;20715;-69
2022/08/27 04:21:19;;;;;;;16.15;10.77;;;;;;;21.61;73.30;100126.72;5085862;28;20056;-68
2022/08/27 04:23:45;;;;;;;14.65;10.32;;;;;;;21.52;73.74;100136.56;5086595;28;20043;-68
2022/08/27 04:26:13;;;;;;;14.10;9.65;;;;;;;21.45;73.99;100140.00;5087909;28;20082;-68
2022/08/27 04:28:40;;;;;;;12.75;9.38;;;;;;;21.44;74.19;100141.00;5078153;28;20068;-67
2022/08/27 04:31:12;;;;;;;13.15;10.30;;;;;;;21.43;74.13;100142.81;5085133;28;20048;-68
2022/08/27 04:33:42;;;;;;;;;;;;;;;21.43;74.42;100139.28;5087015;28;20068;-68
2022/08/27 04:36:16;;;;;;;13.85;9.23;;;;;;;21.39;74.57;100140.59;5103930;27;19923;-68
2022/08/27 04:38:43;;;;;;;13.32;9.18;;;;;;;21.39;74.45;100143.28;5101619;28;20056;-69
2022/08/27 04:41:20;;;;;;;14.75;9.55;;;;;;;21.41;74.51;100139.44;5100815;27;20066;-69
2022/08/27 04:43:49;;;;;;;10.98;9.00;;;;;;;21.33;74.68;100145.56;5101308;28;20040;-68
2022/08/27 04:46:24;;;;;;;11.50;9.13;;;;;;;21.28;74.75;100153.22;5101793;28;20046;-69
2022/08/27 04:48:51;;;;;;;13.05;9.30;;;;;;;21.30;75.07;100148.56;5106571;28;20130;-69
2022/08/27 04:51:19;;;;;;;10.93;8.82;;;;;;;21.30;74.87;100156.63;5100726;28;20051;-70
2022/08/27 04:53:48;;;;;;;14.27;8.75;;;;;;;21.33;74.96;100152.81;5103681;28;20043;-69
2022/08/27 04:56:17;;;;;;;14.48;10.00;;;;;;;21.40;74.18;100150.38;5101631;28;20074;-68
2022/08/27 04:58:44;;;;;;;15.52;9.95;;;;;;;21.40;74.42;100155.78;5096154;28;20531;-69
2022/08/27 05:01:16;;;;;;;17.25;9.75;;;;;;;21.32;74.78;100156.50;5103816;28;20043;-69
2022/08/27 05:03:43;;;;;;;13.13;9.27;;;;;;;21.19;75.26;100139.78;5105096;28;20147;-68
2022/08/27 05:06:11;;;;;;;13.80;9.43;;;;;;;21.22;75.27;100159.22;5100297;28;20170;-69
2022/08/27 05:08:38;;;;;;;17.10;10.35;;;;;;;21.09;75.42;100145.19;5092698;28;20086;-69
2022/08/27 05:11:13;;;;;;;12.70;9.38;;;;;;;21.15;75.83;100165.28;5097720;28;20040;-68
2022/08/27 05:13:42;;;;;;;15.77;9.25;;;;;;;21.11;75.93;100161.19;5104539;28;20468;-68
2022/08/27 05:16:13;;;;;;;14.00;9.18;;;;;;;20.95;76.25;100141.09;5104035;28;21024;-70
2022/08/27 05:18:40;;;;;;;15.02;9.45;;;;;;;21.07;76.49;100167.88;5106698;28;20396;-69
2022/08/27 05:21:17;;;;;;;13.75;8.43;;;;;;;21.08;76.39;100167.72;5107397;27;20067;-68
2022/08/27 05:23:44;;;;;;;13.38;9.10;;;;;;;21.11;76.53;100167.41;5103240;28;20473;-69
2022/08/27 05:26:11;;;;;;;12.23;9.13;;;;;;;21.12;75.95;100169.09;5105887;27;20040;-68
2022/08/27 05:28:37;;;;;;;12.27;9.30;;;;;;;21.11;76.60;100167.41;5107688;28;20549;-68
2022/08/27 05:31:07;;;;;;;11.13;8.30;;;;;;;21.09;76.17;100155.13;5106653;28;20097;-69
2022/08/27 05:33:33;;;;;;;12.05;8.27;;;;;;;21.15;76.03;100171.53;5106022;28;20047;-67
2022/08/27 05:36:01;;;;;;;13.30;8.27;;;;;;;21.19;76.29;100162.19;5102764;28;20487;-68
2022/08/27 05:38:29;;;;;;;12.43;9.10;;;;;;;21.08;76.02;100132.72;5107319;28;20070;-67
2022/08/27 05:41:18;;;;;;;14.23;8.65;;;;;;;21.27;75.69;100162.31;5098403;28;20441;-66
2022/08/27 05:43:45;;;;;;;12.93;9.40;;;;;;;21.29;75.49;100157.63;5105196;28;20044;-67
2022/08/27 05:46:17;;;;;;;11.32;8.38;;;;;;;21.28;75.79;100155.91;5107388;28;20050;-67
2022/08/27 05:48:44;;;;;;;12.55;8.45;;;;;;;21.29;76.11;100157.63;5103660;28;20075;-67
2022/08/27 05:51:20;;;;;;;13.65;8.48;;;;;;;21.31;75.27;100160.16;5110421;27;20159;-67
2022/08/27 05:53:55;;;;;;;13.05;8.82;;;;;;;21.36;75.23;100152.50;5112280;27;20112;-67
2022/08/27 05:56:23;;;;;;;;;;;;;;;21.42;75.08;100161.81;5104479;27;20683;-67
2022/08/27 06:01:40;;;;;;;12.98;8.50;;;;;;;21.48;74.61;100155.88;5109185;27;20043;-67
2022/08/27 06:04:08;;;;;;;17.05;8.55;;;;;;;21.49;74.44;100158.41;5100106;28;20055;-67
2022/08/27 06:06:37;;;;;;;9.57;7.75;;;;;;;21.53;74.93;100165.22;5104639;28;20067;-67
2022/08/27 06:09:05;;;;;;;11.27;8.18;;;;;;;21.61;74.63;100156.38;5103698;27;20109;-67
2022/08/27 06:11:32;;;;;;;14.30;8.77;;;;;;;21.64;74.19;100154.25;5107099;27;20070;-67
2022/08/27 06:13:59;;;;;;;14.25;8.75;;;;;;;21.73;74.00;100160.56;5103271;28;20054;-67
2022/08/27 06:16:26;;;;;;;15.27;8.73;;;;;;;21.83;73.20;100158.69;5106860;28;20086;-67
2022/08/27 06:18:54;;;;;;;15.98;8.35;;;;;;;21.88;73.63;100159.06;5096907;28;20390;-67
2022/08/27 06:21:21;;;;;;;14.93;8.43;;;;;;;21.92;73.08;100149.69;5111745;27;20050;-67
2022/08/27 06:23:51;;;;;;;11.60;7.83;;;;;;;21.95;72.58;100168.28;5107042;27;20055;-68
2022/08/27 06:26:19;;;;;;;13.50;8.82;;;;;;;21.97;72.63;100163.59;5102754;27;20089;-68
2022/08/27 06:28:46;;;;;;;13.02;8.98;;;;;;;21.93;72.41;100162.19;5104852;27;20061;-67
2022/08/27 06:31:16;;;;;;;12.20;8.50;;;;;;;21.89;72.72;100166.16;5106016;27;20479;-67
2022/08/27 06:33:45;;;;;;;18.50;8.73;;;;;;;21.86;73.14;100166.50;5109359;27;20132;-67
2022/08/27 06:36:15;;;;;;;9.57;8.48;;;;;;;21.86;73.42;100160.25;5100092;28;20551;-71
2022/08/27 06:38:42;;;;;;;12.77;8.73;;;;;;;21.76;73.28;100149.50;5108493;27;20098;-67
2022/08/27 06:41:12;;;;;;;12.35;8.45;;;;;;;21.86;73.05;100185.34;5097329;27;20040;-67
2022/08/27 06:43:49;;;;;;;18.33;9.43;;;;;;;21.79;73.10;100178.00;5119552;27;20052;-67
2022/08/27 06:46:17;;;;;;;11.25;8.18;;;;;;;21.77;73.57;100178.16;5112456;27;20040;-67
2022/08/27 06:48:45;;;;;;;12.57;8.70;;;;;;;21.88;73.69;100169.03;5104299;27;20056;-67
2022/08/27 06:51:20;;;;;;;12.88;7.90;;;;;;;22.07;73.13;100184.28;5101078;27;20042;-67
2022/08/27 06:53:47;;;;;;;15.88;8.70;;;;;;;21.89;72.42;100162.63;5087138;28;20032;-67
2022/08/27 06:56:15;;;;;;;11.90;8.43;;;;;;;21.93;72.61;100183.75;5082598;28;20591;-68
2022/08/27 06:58:43;;;;;;;13.23;9.25;;;;;;;21.93;72.64;100190.97;5100918;27;20139;-67
2022/08/27 07:01:37;;;;;;;12.25;8.85;;;;;;;21.91;72.71;100199.22;5102116;27;20279;-67
2022/08/27 07:04:06;;;;;;;15.05;8.68;;;;;;;21.93;73.22;100194.53;5096265;27;20079;-67
2022/08/27 07:06:34;;;;;;;11.68;8.85;;;;;;;21.96;72.47;100199.63;5095557;28;20104;-67
2022/08/27 07:09:02;;;;;;;12.50;8.75;;;;;;;21.96;72.46;100188.84;5107168;27;20070;-67
2022/08/27 07:11:31;;;;;;;13.40;9.02;;;;;;;21.94;72.56;100198.94;5112446;27;20039;-67
2022/08/27 07:13:58;;;;;;;13.10;8.25;;;;;;;22.00;72.55;100184.88;5105488;27;20515;-68
2022/08/27 07:16:27;;;;;;;14.75;8.13;;;;;;;22.12;72.10;100195.47;5100886;27;20491;-68
2022/08/27 07:18:56;;;;;;;11.35;8.50;;;;;;;22.21;71.71;100194.53;5102795;27;20051;-70
2022/08/27 07:21:28;;;;;;;10.18;8.02;;;;;;;22.25;71.66;100182.47;5092065;28;20092;-69
2022/08/27 07:23:58;;;;;;;11.82;8.50;;;;;;;22.40;70.18;100194.44;5105338;27;20418;-68
2022/08/27 07:26:25;;;;;;;12.05;8.10;;;;;;;22.48;70.23;100181.03;5104967;28;20039;-68
2022/08/27 07:28:52;;;;;;;12.43;7.82;;;;;;;22.62;69.66;100185.88;5109577;27;20507;-69
2022/08/27 07:31:22;;;;;;;12.65;8.55;;;;;;;22.73;69.11;100179.41;5107484;27;20066;-69
2022/08/27 07:33:50;;;;;;;13.43;7.93;;;;;;;22.90;68.53;100183.13;5095987;28;20050;-69
2022/08/27 07:36:22;;;;;;;12.35;8.13;;;;;;;22.87;68.18;100176.19;5096543;27;20055;-69
2022/08/27 07:38:49;;;;;;;;;;;;;;;22.88;68.65;100185.97;5097919;27;20070;-69
2022/08/27 07:41:28;;;;;;;11.13;7.70;;;;;;;22.77;68.28;100159.22;5079438;28;20265;-69
2022/08/27 07:46:46;;;;;;;10.82;7.13;;;;;;;22.86;68.07;100187.13;5103217;27;19927;-69
2022/08/27 07:49:16;;;;;;;9.95;6.85;;;;;;;22.75;68.56;100194.44;5100149;27;20115;-68
2022/08/27 07:51:43;;;;;;;13.60;6.95;;;;;;;22.84;68.84;100172.94;5108480;27;20055;-69
2022/08/27 07:54:10;;;;;;;11.60;6.82;;;;;;;23.31;67.07;100171.59;5096536;27;20140;-68
2022/08/27 07:56:36;;;;;;;8.55;6.45;;;;;;;23.77;64.88;100193.84;5104860;27;20071;-68
2022/08/27 07:59:03;;;;;;;9.20;6.60;;;;;;;23.87;63.80;100200.00;5100854;27;20143;-68
2022/08/27 08:01:29;;;;;;;8.27;6.10;;;;;;;24.16;62.18;100193.34;5080259;28;20066;-69
2022/08/27 08:03:56;;;;;;;9.20;6.38;;;;;;;24.38;61.55;100195.50;5093602;28;20131;-68
2022/08/27 08:06:25;;;;;;;6.30;5.50;;;;;;;24.42;60.41;100192.25;5099628;27;20052;-69
2022/08/27 08:08:52;;;;;;;9.18;5.85;;;;;;;24.59;60.47;100195.00;5075290;27;20043;-68
2022/08/27 08:11:19;;;;;;;7.53;5.50;;;;;;;24.75;59.32;100201.28;5097781;27;20074;-70
2022/08/27 08:13:46;;;;;;;6.93;5.60;;;;;;;24.82;59.21;100196.06;5095274;27;20108;-68
2022/08/27 08:16:14;;;;;;;6.28;5.15;;;;;;;24.95;58.91;100185.59;5093128;27;20506;-67
2022/08/27 08:18:40;;;;;;;6.72;5.28;;;;;;;25.25;57.24;100202.16;5089632;27;20098;-68
2022/08/27 08:21:11;;;;;;;6.10;4.65;;;;;;;25.05;57.06;100178.13;5094876;27;20761;-67
2022/08/27 08:23:38;;;;;;;5.43;4.70;;;;;;;25.31;57.83;100204.19;5095177;27;20075;-69
2022/08/27 08:26:07;;;;;;;5.95;5.10;;;;;;;25.49;55.41;100205.69;5096521;28;20035;-67
2022/08/27 08:28:35;;;;;;;6.22;4.45;;;;;;;25.50;56.54;100211.94;5094775;28;20134;-67
2022/08/27 08:31:03;;;;;;;5.13;4.63;;;;;;;25.45;55.62;100209.75;5100585;27;20090;-67
2022/08/27 08:33:31;;;;;;;4.88;4.18;;;;;;;25.37;56.22;100212.47;5093845;28;20055;-67
2022/08/27 08:36:10;;;;;;;5.65;4.60;;;;;;;25.37;56.07;100209.75;5078857;27;20412;-69
2022/08/27 08:38:38;;;;;;;5.47;4.47;;;;;;;25.04;56.13;100199.97;5094634;28;20062;-68
2022/08/27 08:41:18;;;;;;;5.03;4.60;;;;;;;24.85;57.29;100220.09;5092747;28;20040;-67
2022/08/27 08:43:50;;;;;;;6.75;4.55;;;;;;;24.59;57.76;100214.78;5097447;28;20047;-69
2022/08/27 08:46:26;;;;;;;6.35;4.70;;;;;;;24.48;58.11;100225.94;5097112;28;20044;-67
2022/08/27 08:48:58;;;;;;;5.25;4.65;;;;;;;24.50;58.58;100215.81;5096432;28;20048;-67
2022/08/27 08:51:31;;;;;;;6.15;4.60;;;;;;;24.57;58.75;100214.13;5098668;28;20054;-69
2022/08/27 08:54:05;;;;;;;5.38;4.63;;;;;;;24.81;57.96;100224.16;5099879;27;20051;-68
2022/08/27 08:56:53;;;;;;;5.22;4.65;;;;;;;24.98;57.01;100206.94;5097094;28;20067;-68
2022/08/27 08:59:25;;;;;;;5.80;4.80;;;;;;;24.93;56.55;100213.81;5092838;28;20514;-68
2022/08/27 09:01:53;;;;;;;4.82;4.32;;;;;;;24.90;57.57;100219.56;5094485;28;20043;-67
2022/08/27 09:04:22;;;;;;;6.03;4.70;;;;;;;24.71;57.77;100232.41;5095978;28;20040;-67
2022/08/27 09:07:14;;;;;;;5.55;4.70;;;;;;;24.56;58.35;100227.81;5100190;28;20043;-68
2022/08/27 09:09:52;;;;;;;6.63;5.50;;;;;;;24.49;58.41;100227.66;5100699;28;20044;-67
2022/08/27 09:12:28;;;;;;;6.18;4.72;;;;;;;24.43;59.26;100237.25;5095287;28;20164;-69
2022/08/27 09:15:15;;;;;;;6.57;4.80;;;;;;;24.53;59.17;100223.59;5098623;28;20491;-68
2022/08/27 09:17:44;;;;;;;5.97;4.68;;;;;;;24.56;58.86;100220.53;5091766;28;20048;-68
2022/08/27 09:20:20;;;;;;;5.53;4.07;;;;;;;24.81;58.47;100222.28;5079678;28;20040;-67
2022/08/27 09:23:06;;;;;;;7.43;4.53;;;;;;;24.98;57.90;100222.34;5091196;28;20051;-67
2022/08/27 09:25:36;;;;;;;6.97;4.55;;;;;;;25.08;56.94;100223.00;5094938;28;20052;-67
2022/08/27 09:31:13;;;;;;;5.28;4.22;;;;;;;25.16;55.88;100229.28;5093152;28;20495;-68
2022/08/27 09:33:40;;;;;;;6.53;4.60;;;;;;;25.13;55.32;100231.47;5093374;28;20574;-68
2022/08/27 09:36:22;;;;;;;6.10;4.40;;;;;;;24.98;56.91;100225.03;5089333;28;20138;-67
2022/08/27 09:39:01;;;;;;;5.72;4.07;;;;;;;25.06;56.54;100220.47;5096348;28;20981;-67
2022/08/27 09:41:38;;;;;;;7.45;4.47;;;;;;;25.21;56.89;100238.75;5097205;28;20043;-68
2022/08/27 09:44:11;;;;;;;6.03;4.10;;;;;;;25.28;55.41;100221.66;5097816;28;20051;-70
2022/08/27 09:46:38;;;;;;;8.55;4.20;;;;;;;25.33;55.64;100238.25;5096066;28;20048;-68
2022/08/27 09:49:13;;;;;;;5.93;4.70;;;;;;;25.21;55.77;100222.47;5085572;28;20043;-68
2022/08/27 09:51:43;;;;;;;5.25;4.50;;;;;;;25.24;55.77;100235.69;5093042;28;20093;-70
2022/08/27 09:54:10;;;;;;;7.53;4.50;;;;;;;25.22;55.91;100235.88;5093589;28;20536;-68
2022/08/27 09:56:40;;;;;;;7.45;4.13;;;;;;;25.11;56.47;100230.78;5095248;28;20068;-67
2022/08/27 09:59:21;;;;;;;5.03;4.25;;;;;;;25.11;56.65;100237.06;5100459;28;20036;-68
2022/08/27 10:02:01;;;;;;;4.57;4.10;;;;;;;25.23;56.58;100229.44;5105095;28;20121;-68
2022/08/27 10:04:41;;;;;;;5.07;4.57;;;;;;;25.10;55.62;100202.84;5105760;28;20826;-67
2022/08/27 10:07:52;;;;;;;5.30;4.22;;;;;;;25.11;56.32;100226.22;5108848;27;20108;-67
2022/08/27 10:10:40;;;;;;;6.28;4.55;;;;;;;25.16;56.28;100228.44;5098849;27;20051;-68
2022/08/27 10:13:26;;;;;;;7.28;4.88;;;;;;;25.25;56.95;100237.41;5103268;28;20097;-70
2022/08/27 10:16:16;;;;;;;6.03;4.78;;;;;;;25.31;56.04;100234.00;5103928;27;20436;-68
2022/08/27 10:18:57;;;;;;;;;;;;;;;25.36;56.48;100229.75;5104248;27;20472;-68
2022/08/27 10:21:32;;;;;;;5.32;4.18;;;;;;;25.36;55.54;100215.34;5106498;28;19962;-68
2022/08/27 10:24:28;;;;;;;4.90;3.97;;;;;;;25.52;55.59;100229.72;5102647;28;20092;-69
2022/08/27 10:27:10;;;;;;;5.43;4.60;;;;;;;25.63;54.98;100225.88;5099628;28;20056;-69
2022/08/27 10:29:52;;;;;;;4.68;3.70;;;;;;;25.67;54.27;100204.66;5102527;27;20056;-70
2022/08/27 10:32:38;;;;;;;5.38;4.20;;;;;;;25.80;53.55;100227.53;5100035;28;20079;-70
2022/08/27 10:35:15;;;;;;;4.53;3.88;;;;;;;25.85;54.02;100221.53;5098267;27;20085;-70
2022/08/27 10:37:58;;;;;;;8.18;4.25;;;;;;;25.99;53.51;100217.25;5095202;27;20537;-71
2022/08/27 10:40:33;;;;;;;3.75;3.40;;;;;;;26.24;53.03;100216.16;5093162;27;20072;-70
2022/08/27 10:43:44;;;;;;;4.40;3.90;;;;;;;26.17;52.58;100223.28;5091988;28;20043;-70
2022/08/27 10:46:29;;;;;;;5.13;4.22;;;;;;;26.29;52.69;100221.09;5073645;28;20488;-70
2022/08/27 10:49:02;;;;;;;6.82;4.35;;;;;;;26.06;52.37;100200.09;5092200;27;20207;-70
2022/08/27 10:51:55;;;;;;;6.72;4.10;;;;;;;26.19;52.43;100215.81;5092818;28;20043;-71
2022/08/27 10:54:38;;;;;;;6.40;4.38;;;;;;;26.32;52.41;100226.13;5097842;27;20100;-69
2022/08/27 10:57:33;;;;;;;5.70;4.40;;;;;;;26.12;51.48;100237.41;5090983;27;20055;-70
2022/08/27 11:00:23;;;;;;;5.25;4.47;;;;;;;25.82;52.86;100227.31;5058983;28;20143;-71
2022/08/27 11:02:55;;;;;;;5.00;4.10;;;;;;;25.68;53.54;100231.59;5101975;27;20040;-70
2022/08/27 11:05:30;;;;;;;5.93;4.13;;;;;;;25.78;53.25;100223.28;5098106;27;20040;-69
2022/08/27 11:08:02;;;;;;;4.70;4.30;;;;;;;25.66;52.86;100205.66;5101481;27;20138;-70
2022/08/27 11:10:33;;;;;;;4.80;4.30;;;;;;;25.65;53.36;100220.28;5096218;27;20040;-71
2022/08/27 11:13:07;;;;;;;5.20;4.40;;;;;;;25.57;53.49;100222.94;5098560;27;20062;-70
2022/08/27 11:15:37;;;;;;;8.57;4.55;;;;;;;25.51;53.61;100217.19;5098738;27;20120;-70
2022/08/27 11:18:11;;;;;;;;;;;;;;;25.61;53.73;100221.59;5091374;27;20532;-69
2022/08/27 11:20:53;;;;;;;5.15;4.30;;;;;;;25.76;53.25;100201.75;5106435;27;19923;-71
2022/08/27 11:23:26;;;;;;;7.80;4.63;;;;;;;25.95;52.42;100213.22;5089841;27;20093;-69
2022/08/27 11:26:04;;;;;;;6.10;4.80;;;;;;;25.95;53.39;100205.09;5085732;27;20442;-71
2022/08/27 11:28:38;;;;;;;5.10;4.55;;;;;;;25.94;52.35;100211.53;5093321;28;20104;-70
2022/08/27 11:31:07;;;;;;;5.07;4.57;;;;;;;25.87;52.75;100219.50;5102324;28;20127;-69
2022/08/27 11:33:49;;;;;;;6.57;4.82;;;;;;;25.82;52.79;100216.47;5093681;27;20047;-71
2022/08/27 11:36:36;;;;;;;4.80;4.30;;;;;;;25.83;52.88;100218.16;5090872;27;20392;-69
2022/08/27 11:39:18;;;;;;;5.82;4.47;;;;;;;25.80;53.06;100194.97;5095516;27;20053;-71
2022/08/27 11:42:12;;;;;;;6.35;4.63;;;;;;;25.94;52.84;100209.66;5092474;27;20047;-70
2022/08/27 11:44:45;;;;;;;4.68;4.25;;;;;;;25.88;52.86;100209.50;5096087;27;20054;-73
2022/08/27 11:47:24;;;;;;;6.07;5.00;;;;;;;25.81;53.15;100214.81;5100814;28;20044;-73
2022/08/27 11:49:55;;;;;;;5.85;4.20;;;;;;;25.60;53.03;100190.91;5098147;28;20397;-70